Aintree, United Kingdom
Current Conditions -  °F | °C
As of 2:20 PM on Thursday 29 Jan 2015 (Local Time) from EGGP Reporting Station
Rain Showers Rain Showers  
Wind Chill: 27°   Ceiling: Unl
Heat Index: 37°   Visibility: 6mi
Dew Point: 34°   Wind: 18mph
Humidity: 87%   Direction: 290°WNW
Pressure: 28.85"   Gusts: NA
Location:  53.48°N, 2.94°W
Report Text: EGGP 291420Z 29016KT 9999 VCSH FEW008CB SCT022 03/01 Q0977 RESHSN
Loading
Personal Weather Stations






























Interactive Weather Map New forecast layout! Learn more

10-Day Weather Forecast

Advertisements
Track Severe Weather on mobile